Time;durP1;ratioP1;P1;durP2;ratioP2;P2;SDS_P1;SDS_P2;PMS_P1;PMS_P2;Temp;Humidity;BMP_temperature;BMP_pressure;BME280_temperature;BME280_humidity;BME280_pressure;Samples;Min_cycle;Max_cycle;Signal;HPM_P1;HPM_P2
2023/04/30 00:03:47;;;;;;;;;;;;;;;7.07;100.00;102283.53;10454285;28;19928;-65
2023/04/30 00:08:49;;;;;;;;;;;;;;;7.02;100.00;102284.53;10454276;28;19932;-65
2023/04/30 00:13:52;;;;;;;;;;;;;;;6.96;100.00;102287.22;10425075;28;19925;-65
2023/04/30 00:18:54;;;;;;;;;;;;;;;6.99;100.00;102290.66;10436943;28;19925;-65
2023/04/30 00:23:56;;;;;;;;;;;;;;;6.92;100.00;102282.97;10455538;28;20036;-65
2023/04/30 00:28:58;;;;;;;;;;;;;;;7.00;100.00;102292.34;10442498;28;20265;-65
2023/04/30 00:34:00;;;;;;;;;;;;;;;6.85;100.00;102290.03;10459884;28;19971;-65
2023/04/30 00:39:03;;;;;;;;;;;;;;;6.75;100.00;102288.50;10346381;28;1954707;-65
2023/04/30 00:44:05;;;;;;;;;;;;;;;6.73;100.00;102290.28;10422471;28;19936;-65
2023/04/30 00:49:07;;;;;;;;;;;;;;;6.85;100.00;102298.69;10461934;28;19971;-65
2023/04/30 00:54:09;;;;;;;;;;;;;;;6.56;100.00;102299.22;10462256;28;19925;-65
2023/04/30 00:59:12;;;;;;;;;;;;;;;6.62;100.00;102295.63;10432655;28;19925;-65
2023/04/30 01:04:14;;;;;;;;;;;;;;;6.44;100.00;102291.59;10420002;28;19979;-65
2023/04/30 01:09:16;;;;;;;;;;;;;;;6.56;100.00;102300.97;10435480;28;19925;-65
2023/04/30 01:14:37;;;;;;;;;;;;;;;6.56;100.00;102301.81;10402214;28;19979;-65
2023/04/30 01:19:41;;;;;;;;;;;;;;;6.29;100.00;102300.53;10449930;28;20383;-65
2023/04/30 01:24:46;;;;;;;;;;;;;;;6.39;100.00;102304.69;10402923;28;19967;-65
2023/04/30 01:29:49;;;;;;;;;;;;;;;6.39;100.00;102296.88;10419210;28;19925;-65
2023/04/30 01:34:51;;;;;;;;;;;;;;;6.21;100.00;102303.22;10400730;28;19929;-65
2023/04/30 01:40:03;;;;;;;;;;;;;;;6.13;100.00;102300.72;10451547;28;20360;-65
2023/04/30 01:45:18;;;;;;;;;;;;;;;6.10;100.00;102308.59;10458667;28;20326;-65
2023/04/30 01:50:23;;;;;;;;;;;;;;;6.13;100.00;102292.94;10442513;28;19929;-65
2023/04/30 01:55:36;;;;;;;;;;;;;;;6.16;100.00;102299.84;10449642;28;19926;-65
2023/04/30 02:00:38;;;;;;;;;;;;;;;6.18;100.00;102300.66;10401221;28;19925;-65
2023/04/30 02:05:40;;;;;;;;;;;;;;;6.08;100.00;102307.72;10425392;28;19971;-65
2023/04/30 02:10:42;;;;;;;;;;;;;;;6.18;100.00;102305.88;10458640;28;20375;-65
2023/04/30 02:15:45;;;;;;;;;;;;;;;6.06;100.00;102298.25;10442499;28;19979;-65
2023/04/30 02:20:47;;;;;;;;;;;;;;;6.26;100.00;102300.56;10458298;28;19925;-65
2023/04/30 02:25:49;;;;;;;;;;;;;;;6.05;100.00;102306.94;10458689;28;19925;-65
2023/04/30 02:30:51;;;;;;;;;;;;;;;5.85;100.00;102307.16;10454306;28;19998;-65
2023/04/30 02:35:54;;;;;;;;;;;;;;;5.95;100.00;102308.75;10431296;28;20367;-65
2023/04/30 02:40:56;;;;;;;;;;;;;;;5.86;100.00;102319.28;10433865;28;20372;-65
2023/04/30 02:45:58;;;;;;;;;;;;;;;5.93;100.00;102311.41;10457729;28;19975;-65
2023/04/30 02:51:01;;;;;;;;;;;;;;;6.02;100.00;102312.16;10440276;28;19974;-65
2023/04/30 02:56:03;;;;;;;;;;;;;;;5.83;100.00;102314.97;10451232;28;19933;-65
2023/04/30 03:01:05;;;;;;;;;;;;;;;5.86;100.00;102309.75;10416342;28;19932;-65
2023/04/30 03:06:07;;;;;;;;;;;;;;;5.86;100.00;102301.09;10416240;28;19925;-65
2023/04/30 03:11:10;;;;;;;;;;;;;;;5.73;100.00;102301.28;10415705;28;19925;-65
2023/04/30 03:16:12;;;;;;;;;;;;;;;5.98;100.00;102302.69;10415496;28;19929;-65
2023/04/30 03:21:14;;;;;;;;;;;;;;;5.93;100.00;102292.31;10415361;28;19925;-65
2023/04/30 03:26:16;;;;;;;;;;;;;;;5.89;100.00;102299.31;10398316;28;19926;-65
2023/04/30 03:31:18;;;;;;;;;;;;;;;5.81;100.00;102297.72;10414865;28;20331;-65
2023/04/30 03:36:21;;;;;;;;;;;;;;;5.64;100.00;102303.13;10418500;28;19971;-65
2023/04/30 03:41:23;;;;;;;;;;;;;;;5.71;100.00;102305.59;10456055;28;19976;-65
2023/04/30 03:46:25;;;;;;;;;;;;;;;5.51;100.00;102305.00;10431903;28;20443;-65
2023/04/30 03:51:27;;;;;;;;;;;;;;;5.71;100.00;102299.56;10397908;28;19964;-65
2023/04/30 03:56:29;;;;;;;;;;;;;;;5.55;100.00;102294.56;10422519;28;19932;-65
2023/04/30 04:01:32;;;;;;;;;;;;;;;5.56;100.00;102296.28;10421234;28;19925;-65
2023/04/30 04:06:34;;;;;;;;;;;;;;;5.62;100.00;102300.53;10389124;28;19925;-66
2023/04/30 04:11:36;;;;;;;;;;;;;;;5.45;100.00;102299.91;10422536;28;19925;-65
2023/04/30 04:16:38;;;;;;;;;;;;;;;5.55;100.00;102304.94;10443471;28;20449;-65
2023/04/30 04:21:43;;;;;;;;;;;;;;;5.75;100.00;102314.25;10463575;28;19974;-65
2023/04/30 04:26:46;;;;;;;;;;;;;;;5.53;100.00;102311.91;10445735;28;19924;-65
2023/04/30 04:31:49;;;;;;;;;;;;;;;5.70;100.00;102301.31;10434821;28;19926;-65
2023/04/30 04:36:52;;;;;;;;;;;;;;;5.52;100.00;102319.72;10403694;28;19933;-65
2023/04/30 04:41:54;;;;;;;;;;;;;;;5.72;100.00;102312.53;10424997;28;19932;-65
2023/04/30 04:46:57;;;;;;;;;;;;;;;5.70;100.00;102314.31;10462585;28;19925;-65
2023/04/30 04:52:00;;;;;;;;;;;;;;;5.77;100.00;102313.34;10461794;28;20427;-65
2023/04/30 04:57:03;;;;;;;;;;;;;;;5.74;100.00;102323.75;10413782;28;19936;-65
2023/04/30 05:02:05;;;;;;;;;;;;;;;6.02;100.00;102312.16;10441754;28;20388;-65
2023/04/30 05:07:07;;;;;;;;;;;;;;;6.21;100.00;102312.78;10461312;28;20276;-65
2023/04/30 05:12:09;;;;;;;;;;;;;;;6.22;100.00;102317.97;10460677;28;19929;-65
2023/04/30 05:17:12;;;;;;;;;;;;;;;6.37;100.00;102319.47;10448560;28;19925;-65
2023/04/30 05:22:14;;;;;;;;;;;;;;;6.39;100.00;102320.31;10419278;28;19925;-65
2023/04/30 05:27:16;;;;;;;;;;;;;;;6.60;100.00;102319.09;10419933;28;19975;-62
2023/04/30 05:32:21;;;;;;;;;;;;;;;6.82;100.00;102318.72;10418237;28;19925;-65
2023/04/30 05:37:23;;;;;;;;;;;;;;;6.82;100.00;102322.19;10412286;28;19929;-65
2023/04/30 05:42:25;;;;;;;;;;;;;;;6.98;100.00;102330.59;10459831;28;20280;-65
2023/04/30 05:47:27;;;;;;;;;;;;;;;6.95;100.00;102328.03;10458900;28;20334;-65
2023/04/30 05:52:30;;;;;;;;;;;;;;;6.98;100.00;102321.94;10444360;28;20427;-65
2023/04/30 05:57:34;;;;;;;;;;;;;;;7.02;100.00;102327.03;10431334;28;20383;-65
2023/04/30 06:02:36;;;;;;;;;;;;;;;7.08;100.00;102331.31;10459573;28;19924;-65
2023/04/30 06:07:38;;;;;;;;;;;;;;;7.35;100.00;102327.31;10458883;28;20295;-65
2023/04/30 06:12:40;;;;;;;;;;;;;;;7.36;100.00;102323.81;10454889;28;19925;-65
2023/04/30 06:17:42;;;;;;;;;;;;;;;7.41;100.00;102328.94;10439316;28;19931;-65
2023/04/30 06:22:45;;;;;;;;;;;;;;;7.45;100.00;102333.22;10457694;28;19932;-65
2023/04/30 06:27:47;;;;;;;;;;;;;;;7.87;100.00;102334.94;10458095;28;19928;-65
2023/04/30 06:32:50;;;;;;;;;;;;;;;8.08;100.00;102329.25;10454900;28;19932;-65
2023/04/30 06:37:52;;;;;;;;;;;;;;;8.14;100.00;102330.88;10421962;28;20293;-65
2023/04/30 06:42:54;;;;;;;;;;;;;;;8.50;100.00;102323.09;10416847;28;19925;-65
2023/04/30 06:47:58;;;;;;;;;;;;;;;8.46;100.00;102319.72;10417138;28;20375;-65
2023/04/30 06:53:00;;;;;;;;;;;;;;;8.93;100.00;102319.44;10416660;28;19925;-65
2023/04/30 06:58:04;;;;;;;;;;;;;;;9.27;100.00;102315.91;10426287;28;19936;-65
2023/04/30 07:03:06;;;;;;;;;;;;;;;9.34;100.00;102316.59;10447683;28;19933;-65
2023/04/30 07:08:09;;;;;;;;;;;;;;;9.54;100.00;102316.88;10428021;28;20023;-64
2023/04/30 07:13:11;;;;;;;;;;;;;;;9.98;97.88;102313.84;10456466;28;20315;-64
2023/04/30 07:18:13;;;;;;;;;;;;;;;10.50;94.81;102300.88;10484196;28;20431;-64
2023/04/30 07:23:16;;;;;;;;;;;;;;;10.93;92.05;102310.78;10498671;28;19936;-65
2023/04/30 07:28:18;;;;;;;;;;;;;;;11.29;87.48;102317.38;10450970;28;19929;-65
2023/04/30 07:33:21;;;;;;;;;;;;;;;12.29;85.56;102318.88;10421078;28;19979;-65
2023/04/30 07:38:23;;;;;;;;;;;;;;;12.88;83.22;102314.66;10427424;28;19929;-65
2023/04/30 07:43:25;;;;;;;;;;;;;;;13.18;82.87;102317.72;10451056;28;19931;-65
2023/04/30 07:48:28;;;;;;;;;;;;;;;13.66;80.71;102325.28;10426462;28;19932;-64
2023/04/30 07:53:30;;;;;;;;;;;;;;;14.20;78.47;102317.47;10443623;22;20333;-64
2023/04/30 07:58:32;;;;;;;;;;;;;;;14.05;75.81;102319.06;10432575;28;20235;-65
2023/04/30 08:03:35;;;;;;;;;;;;;;;14.74;76.76;102314.84;10453810;28;19928;-65
2023/04/30 08:08:38;;;;;;;;;;;;;;;14.56;75.01;102314.81;10460967;28;19924;-64
2023/04/30 08:13:41;;;;;;;;;;;;;;;15.19;74.67;102324.78;10449706;28;20043;-65
2023/04/30 08:18:45;;;;;;;;;;;;;;;15.16;74.13;102324.97;10430133;28;19983;-65
2023/04/30 08:23:47;;;;;;;;;;;;;;;14.55;70.86;102328.06;10451572;28;19924;-65
2023/04/30 08:28:49;;;;;;;;;;;;;;;15.48;73.02;102330.28;10463773;28;19925;-65
2023/04/30 08:33:51;;;;;;;;;;;;;;;15.31;70.99;102320.66;10462975;28;19924;-65
2023/04/30 08:38:54;;;;;;;;;;;;;;;16.39;66.99;102327.94;10444839;28;19936;-65
2023/04/30 08:43:56;;;;;;;;;;;;;;;15.65;68.93;102325.91;10461401;28;19924;-65
2023/04/30 08:48:58;;;;;;;;;;;;;;;16.37;67.85;102327.16;10444939;28;19934;-65
2023/04/30 08:54:00;;;;;;;;;;;;;;;16.03;65.85;102321.16;10444530;28;19932;-65
2023/04/30 08:59:03;;;;;;;;;;;;;;;15.73;65.86;102321.91;10462365;28;19929;-65
2023/04/30 09:04:05;;;;;;;;;;;;;;;16.80;64.43;102308.78;10462094;28;19925;-65
2023/04/30 09:09:10;;;;;;;;;;;;;;;17.88;63.61;102307.47;10443678;28;19925;-65
2023/04/30 09:14:12;;;;;;;;;;;;;;;18.11;65.77;102302.50;10443605;28;20326;-65
2023/04/30 09:19:28;;;;;;;;;;;;;;;17.70;63.80;102305.97;10443307;28;19929;-65
2023/04/30 09:24:33;;;;;;;;;;;;;;;18.67;62.80;102299.66;10431895;28;20273;-65
2023/04/30 09:29:36;;;;;;;;;;;;;;;18.95;62.05;102293.34;10442658;28;20364;-65
2023/04/30 09:34:38;;;;;;;;;;;;;;;19.46;60.98;102295.06;10460349;28;19947;-65
2023/04/30 09:39:50;;;;;;;;;;;;;;;19.08;61.07;102288.00;10460104;28;20376;-66
2023/04/30 09:44:52;;;;;;;;;;;;;;;19.80;56.72;102293.53;10460686;28;19931;-66
2023/04/30 09:49:54;;;;;;;;;;;;;;;19.73;57.57;102292.22;10460427;28;19936;-65
2023/04/30 09:54:57;;;;;;;;;;;;;;;20.63;56.13;102280.31;10459592;28;19925;-66
2023/04/30 10:00:00;;;;;;;;;;;;;;;21.40;56.76;102271.63;10440847;28;20322;-66
2023/04/30 10:05:03;;;;;;;;;;;;;;;19.07;56.89;102276.53;10459254;28;19929;-65
2023/04/30 10:10:08;;;;;;;;;;;;;;;21.01;55.52;102263.19;10441780;28;19932;-66
2023/04/30 10:15:11;;;;;;;;;;;;;;;22.41;53.42;102251.84;10441635;28;19925;-66
2023/04/30 10:20:13;;;;;;;;;;;;;;;22.08;54.07;102246.50;10458890;28;19979;-66
2023/04/30 10:25:15;;;;;;;;;;;;;;;21.52;50.38;102246.72;10441310;28;19964;-66
2023/04/30 10:30:18;;;;;;;;;;;;;;;20.25;51.92;102246.84;10458762;28;19951;-66
2023/04/30 10:35:25;;;;;;;;;;;;;;;22.42;51.60;102241.00;10458005;28;19928;-66
2023/04/30 10:40:27;;;;;;;;;;;;;;;21.24;48.75;102235.56;10440832;28;19925;-67
2023/04/30 10:45:34;;;;;;;;;;;;;;;22.73;47.98;102240.19;10457745;28;20334;-67
2023/04/30 10:50:41;;;;;;;;;;;;;;;22.04;48.51;102230.88;10457236;28;19936;-67
2023/04/30 10:55:59;;;;;;;;;;;;;;;22.91;49.33;102221.72;10457237;28;19924;-67
2023/04/30 11:01:01;;;;;;;;;;;;;;;23.20;51.07;102219.22;10457060;28;20396;-67
2023/04/30 11:06:07;;;;;;;;;;;;;;;23.85;48.18;102205.38;10456974;28;20358;-67
2023/04/30 11:11:10;;;;;;;;;;;;;;;23.17;50.96;102206.13;10438866;28;20338;-67
2023/04/30 11:16:12;;;;;;;;;;;;;;;23.77;45.40;102200.72;10456747;28;20438;-67
2023/04/30 11:21:14;;;;;;;;;;;;;;;23.32;46.66;102204.75;10439473;28;19976;-67
2023/04/30 11:26:16;;;;;;;;;;;;;;;24.42;44.63;102192.03;10457115;28;19975;-67
2023/04/30 11:31:19;;;;;;;;;;;;;;;25.59;45.41;102186.94;10456865;28;19932;-67
2023/04/30 11:36:21;;;;;;;;;;;;;;;25.48;44.72;102180.97;10456010;28;19999;-67
2023/04/30 11:41:26;;;;;;;;;;;;;;;24.60;46.01;102176.09;10439039;28;19924;-67
2023/04/30 11:46:28;;;;;;;;;;;;;;;25.03;46.69;102167.44;10438238;28;20390;-67
2023/04/30 11:51:30;;;;;;;;;;;;;;;25.70;43.38;102161.72;10439814;28;19925;-67
2023/04/30 11:56:36;;;;;;;;;;;;;;;26.12;44.15;102157.53;10455985;28;20380;-67
2023/04/30 12:01:40;;;;;;;;;;;;;;;25.99;44.18;102154.44;10456500;28;19979;-67
2023/04/30 12:06:42;;;;;;;;;;;;;;;23.51;44.84;102153.13;10457200;28;19931;-67
2023/04/30 12:11:45;;;;;;;;;;;;;;;23.01;46.25;102158.50;10455237;28;20328;-67
2023/04/30 12:16:51;;;;;;;;;;;;;;;26.04;45.24;102152.97;10437968;28;19925;-67
2023/04/30 12:21:54;;;;;;;;;;;;;;;25.32;44.20;102141.47;10443289;28;19967;-67
2023/04/30 12:26:59;;;;;;;;;;;;;;;23.15;46.45;102146.66;10445130;28;20364;-67
2023/04/30 12:32:01;;;;;;;;;;;;;;;26.26;41.00;102137.31;10445254;28;19971;-67
2023/04/30 12:37:03;;;;;;;;;;;;;;;23.16;45.67;102134.97;10445486;28;19925;-67
2023/04/30 12:42:06;;;;;;;;;;;;;;;25.31;45.70;102131.72;10445193;28;19936;-66
2023/04/30 12:47:08;;;;;;;;;;;;;;;23.93;44.09;102126.09;10443923;28;19925;-67
2023/04/30 12:52:12;;;;;;;;;;;;;;;22.69;44.79;102122.16;10444774;28;19971;-66
2023/04/30 12:57:14;;;;;;;;;;;;;;;22.50;47.38;102120.28;10444748;28;19925;-66
2023/04/30 13:02:16;;;;;;;;;;;;;;;23.76;44.13;102107.28;10461804;28;19925;-66
2023/04/30 13:07:19;;;;;;;;;;;;;;;22.36;46.89;102104.63;10462147;28;19928;-66
2023/04/30 13:12:21;;;;;;;;;;;;;;;21.95;47.45;102109.00;10461835;28;19925;-66
2023/04/30 13:17:25;;;;;;;;;;;;;;;24.45;44.67;102101.59;10460548;28;19995;-66
2023/04/30 13:22:28;;;;;;;;;;;;;;;25.96;41.37;102083.16;10461221;28;19932;-66
2023/04/30 13:27:30;;;;;;;;;;;;;;;23.55;46.61;102081.53;10461318;28;19932;-65
2023/04/30 13:32:33;;;;;;;;;;;;;;;25.32;45.15;102077.13;10459196;28;19924;-66
2023/04/30 13:37:35;;;;;;;;;;;;;;;22.99;41.21;102065.19;10460931;28;19935;-66
2023/04/30 13:42:38;;;;;;;;;;;;;;;22.36;43.53;102068.13;10460584;28;19925;-66
2023/04/30 13:47:40;;;;;;;;;;;;;;;25.04;39.98;102053.88;10461785;28;19925;-66
2023/04/30 13:52:42;;;;;;;;;;;;;;;22.60;41.48;102061.59;10459543;28;19924;-65
2023/04/30 13:57:44;;;;;;;;;;;;;;;26.38;39.60;102047.47;10460915;28;20490;-65
2023/04/30 14:02:47;;;;;;;;;;;;;;;26.96;37.84;102045.78;10459759;28;19925;-66
2023/04/30 14:07:49;;;;;;;;;;;;;;;24.52;39.43;102044.78;10459001;28;19924;-66
2023/04/30 14:12:51;;;;;;;;;;;;;;;25.91;40.24;102040.66;10460627;28;19931;-66
2023/04/30 14:17:54;;;;;;;;;;;;;;;25.30;42.26;102030.88;10459200;28;19936;-65
2023/04/30 14:22:56;;;;;;;;;;;;;;;26.86;40.74;102021.78;10460286;28;19925;-65
2023/04/30 14:27:58;;;;;;;;;;;;;;;24.70;39.60;102021.59;10458399;28;19924;-65
2023/04/30 14:33:00;;;;;;;;;;;;;;;22.74;43.26;102020.31;10458704;28;19925;-65
2023/04/30 14:38:02;;;;;;;;;;;;;;;22.90;42.63;102009.94;10459144;28;20379;-65
2023/04/30 14:43:05;;;;;;;;;;;;;;;23.88;43.31;102017.88;10457813;28;19929;-65
2023/04/30 14:48:07;;;;;;;;;;;;;;;24.97;40.97;102009.13;10458075;28;19925;-65
2023/04/30 14:53:11;;;;;;;;;;;;;;;26.04;39.39;102002.72;10458968;28;19925;-66
2023/04/30 14:58:13;;;;;;;;;;;;;;;22.92;41.64;101994.63;10439852;28;19932;-66
2023/04/30 15:03:15;;;;;;;;;;;;;;;23.77;41.83;101991.28;10459560;28;19936;-66
2023/04/30 15:08:18;;;;;;;;;;;;;;;24.43;41.60;101995.69;10456727;28;20363;-65
2023/04/30 15:13:20;;;;;;;;;;;;;;;24.44;39.47;101976.78;10458346;28;19979;-65
2023/04/30 15:18:22;;;;;;;;;;;;;;;25.79;39.36;101977.56;10456650;28;19971;-65
2023/04/30 15:23:24;;;;;;;;;;;;;;;23.13;41.90;101977.63;10456341;28;19925;-65
2023/04/30 15:28:26;;;;;;;;;;;;;;;21.92;45.38;101974.13;10457231;28;19925;-65
2023/04/30 15:33:30;;;;;;;;;;;;;;;22.89;43.63;101967.38;10440373;28;19925;-65
2023/04/30 15:38:32;;;;;;;;;;;;;;;23.67;40.68;101957.44;10456943;28;19925;-65
2023/04/30 15:43:35;;;;;;;;;;;;;;;23.31;43.52;101957.22;10456289;28;20449;-65
2023/04/30 15:48:37;;;;;;;;;;;;;;;23.36;41.80;101954.97;10456160;28;20432;-66
2023/04/30 15:53:40;;;;;;;;;;;;;;;23.59;42.26;101951.09;10457411;28;19924;-66
2023/04/30 15:58:42;;;;;;;;;;;;;;;24.40;40.15;101945.94;10467078;28;19925;-66
2023/04/30 16:03:44;;;;;;;;;;;;;;;23.26;42.17;101942.63;10446358;28;19971;-66
2023/04/30 16:08:48;;;;;;;;;;;;;;;23.16;42.86;101935.44;10461113;28;19925;-66
2023/04/30 16:13:51;;;;;;;;;;;;;;;22.92;44.16;101927.03;10463112;28;19925;-66
2023/04/30 16:18:53;;;;;;;;;;;;;;;22.89;45.41;101920.13;10464221;28;19971;-66
2023/04/30 16:23:55;;;;;;;;;;;;;;;;;;10463732;28;19975;-66
2023/04/30 16:28:57;;;;;;;;;;;;;;;22.89;43.94;101919.31;10466997;28;19928;-66
2023/04/30 16:33:59;;;;;;;;;;;;;;;23.06;42.11;101907.06;10462348;28;19924;-65
2023/04/30 16:39:02;;;;;;;;;;;;;;;22.04;41.53;101908.22;10462627;28;19984;-65
2023/04/30 16:44:04;;;;;;;;;;;;;;;22.49;43.05;101901.59;10462892;28;19931;-65
2023/04/30 16:49:07;;;;;;;;;;;;;;;21.96;45.63;101902.75;10462378;28;19947;-66
2023/04/30 16:54:09;;;;;;;;;;;;;;;21.07;45.25;101908.59;10461820;28;20372;-66
2023/04/30 16:59:11;;;;;;;;;;;;;;;20.66;47.69;101907.56;10463072;28;19928;-66
2023/04/30 17:04:14;;;;;;;;;;;;;;;20.44;47.98;101900.47;10462189;28;19971;-65
2023/04/30 17:09:18;;;;;;;;;;;;;;;20.14;48.20;101896.69;10461662;28;19925;-65
2023/04/30 17:14:21;;;;;;;;;;;;;;;20.00;47.39;101889.81;10444096;28;20051;-65
2023/04/30 17:19:23;;;;;;;;;;;;;;;19.53;49.63;101889.94;10461231;28;20338;-66
2023/04/30 17:24:26;;;;;;;;;;;;;;;19.61;47.29;101881.38;10461264;28;19936;-66
2023/04/30 17:29:28;;;;;;;;;;;;;;;19.06;48.40;101875.88;10460658;28;20334;-66
2023/04/30 17:34:30;;;;;;;;;;;;;;;18.82;50.82;101868.78;10460927;28;19925;-66
2023/04/30 17:39:33;;;;;;;;;;;;;;;18.27;52.12;101879.00;10443289;28;19931;-65
2023/04/30 17:44:35;;;;;;;;;;;;;;;18.04;52.63;101879.84;10442984;28;19928;-65
2023/04/30 17:49:37;;;;;;;;;;;;;;;18.11;53.50;101881.94;10460475;28;20015;-65
2023/04/30 17:54:40;;;;;;;;;;;;;;;17.80;54.10;101880.59;10459475;28;20276;-66
2023/04/30 17:59:42;;;;;;;;;;;;;;;17.54;55.80;101879.81;10441814;28;20410;-65
2023/04/30 18:04:44;;;;;;;;;;;;;;;17.21;57.20;101883.81;10459756;28;19926;-65
2023/04/30 18:09:47;;;;;;;;;;;;;;;17.03;58.14;101877.97;10459538;28;19971;-65
2023/04/30 18:14:49;;;;;;;;;;;;;;;16.70;58.86;101871.31;10458845;28;20277;-65
2023/04/30 18:19:51;;;;;;;;;;;;;;;16.50;59.29;101867.34;10457918;28;19951;-65
2023/04/30 18:24:54;;;;;;;;;;;;;;;16.31;59.32;101865.91;10459134;28;19925;-65
2023/04/30 18:29:56;;;;;;;;;;;;;;;16.11;62.66;101864.53;10458770;28;19971;-65
2023/04/30 18:34:59;;;;;;;;;;;;;;;15.73;62.78;101866.91;10460081;28;19925;-65
2023/04/30 18:40:01;;;;;;;;;;;;;;;15.28;65.72;101863.50;10464449;28;19924;-65
2023/04/30 18:45:04;;;;;;;;;;;;;;;15.04;65.41;101862.25;10466025;28;19928;-65
2023/04/30 18:50:09;;;;;;;;;;;;;;;14.80;66.29;101855.78;10458344;28;19955;-65
2023/04/30 18:55:12;;;;;;;;;;;;;;;14.59;67.09;101844.69;10441514;28;19972;-65
2023/04/30 19:00:15;;;;;;;;;;;;;;;14.24;67.70;101851.03;10457898;28;19928;-65
2023/04/30 19:05:18;;;;;;;;;;;;;;;14.04;69.79;101854.75;10440061;28;19951;-65
2023/04/30 19:10:20;;;;;;;;;;;;;;;13.74;70.39;101849.38;10458617;28;20016;-66
2023/04/30 19:15:24;;;;;;;;;;;;;;;13.56;72.44;101859.09;10455738;28;20339;-66
2023/04/30 19:20:26;;;;;;;;;;;;;;;13.54;72.84;101861.81;10457543;28;19928;-65
2023/04/30 19:25:28;;;;;;;;;;;;;;;13.31;73.43;101867.41;10456591;28;20394;-66
2023/04/30 19:30:31;;;;;;;;;;;;;;;13.20;73.56;101867.97;10462652;28;20449;-65
2023/04/30 19:35:33;;;;;;;;;;;;;;;12.98;75.28;101869.06;10463446;28;19947;-66
2023/04/30 19:40:35;;;;;;;;;;;;;;;12.63;78.04;101866.41;10465321;28;19936;-66
2023/04/30 19:46:04;;;;;;;;;;;;;;;12.78;76.92;101869.22;10464099;28;20367;-65
2023/04/30 19:51:08;;;;;;;;;;;;;;;12.55;78.25;101865.06;10461515;28;19932;-66
2023/04/30 19:56:10;;;;;;;;;;;;;;;12.49;79.46;101866.25;10465038;28;19929;-65
2023/04/30 20:01:12;;;;;;;;;;;;;;;12.49;79.10;101863.63;10468011;28;19925;-66
2023/04/30 20:06:17;;;;;;;;;;;;;;;12.38;80.84;101865.91;10464297;28;19924;-66
2023/04/30 20:11:23;;;;;;;;;;;;;;;12.10;82.22;101861.94;10338875;28;20032;-67
2023/04/30 20:16:25;;;;;;;;;;;;;;;12.19;82.80;101858.91;10327172;28;20284;-67
2023/04/30 20:21:28;;;;;;;;;;;;;;;12.06;83.00;101855.16;10366949;28;19926;-67
2023/04/30 20:26:31;;;;;;;;;;;;;;;12.06;83.88;101839.41;10339128;28;19926;-67
2023/04/30 20:31:34;;;;;;;;;;;;;;;11.93;84.04;101852.22;10340438;28;19930;-67
2023/04/30 20:36:36;;;;;;;;;;;;;;;11.83;85.91;101849.13;10338605;28;20137;-67
2023/04/30 20:41:39;;;;;;;;;;;;;;;11.76;86.28;101844.25;10338941;28;19930;-67
2023/04/30 20:46:41;;;;;;;;;;;;;;;11.81;86.27;101851.00;10338448;28;19926;-67
2023/04/30 20:51:44;;;;;;;;;;;;;;;11.69;86.01;101841.91;10340031;28;19930;-67
2023/04/30 20:56:46;;;;;;;;;;;;;;;11.50;87.82;101841.06;10338329;28;19930;-67
2023/04/30 21:01:48;;;;;;;;;;;;;;;11.55;87.97;101832.94;10322425;28;19933;-67
2023/04/30 21:06:51;;;;;;;;;;;;;;;11.46;87.74;101829.81;10337966;28;20254;-67
2023/04/30 21:11:53;;;;;;;;;;;;;;;11.43;88.81;101835.22;10321144;28;19948;-67
2023/04/30 21:16:56;;;;;;;;;;;;;;;11.25;87.67;101823.78;10338067;28;19926;-67
2023/04/30 21:21:58;;;;;;;;;;;;;;;11.15;89.83;101823.31;10338722;28;19981;-67
2023/04/30 21:27:00;;;;;;;;;;;;;;;11.14;89.68;101826.00;10337259;28;19926;-67
2023/04/30 21:32:03;;;;;;;;;;;;;;;11.28;88.46;101822.78;10337806;28;19949;-67
2023/04/30 21:37:05;;;;;;;;;;;;;;;11.05;88.83;101824.63;10295664;28;19960;-67
2023/04/30 21:42:07;;;;;;;;;;;;;;;11.17;89.71;101810.16;10313852;28;19929;-67
2023/04/30 21:47:09;;;;;;;;;;;;;;;11.12;90.13;101812.13;10337156;28;19932;-67
2023/04/30 21:52:12;;;;;;;;;;;;;;;11.05;88.80;101811.53;10335768;28;19926;-67
2023/04/30 21:57:14;;;;;;;;;;;;;;;11.04;88.42;101807.19;10336801;28;19926;-67
2023/04/30 22:02:18;;;;;;;;;;;;;;;11.03;89.86;101802.88;10336625;28;20261;-67
2023/04/30 22:07:26;;;;;;;;;;;;;;;11.06;89.12;101792.28;10328263;28;20368;-67
2023/04/30 22:12:28;;;;;;;;;;;;;;;11.06;88.67;101792.28;10374662;28;19938;-67
2023/04/30 22:17:31;;;;;;;;;;;;;;;10.99;89.39;101789.97;10359127;28;19925;-67
2023/04/30 22:22:34;;;;;;;;;;;;;;;10.90;90.77;101793.84;10376913;28;19926;-67
2023/04/30 22:27:36;;;;;;;;;;;;;;;10.70;91.60;101782.44;10376108;28;19925;-67
2023/04/30 22:32:38;;;;;;;;;;;;;;;10.79;90.55;101783.81;10375845;28;19964;-67
2023/04/30 22:37:41;;;;;;;;;;;;;;;11.03;89.98;101779.31;10375561;28;19973;-67
2023/04/30 22:42:44;;;;;;;;;;;;;;;10.94;91.09;101771.81;10375652;28;20435;-67
2023/04/30 22:47:46;;;;;;;;;;;;;;;10.74;91.74;101765.69;10374403;28;19925;-67
2023/04/30 22:52:48;;;;;;;;;;;;;;;10.73;92.98;101769.22;10338329;28;19925;-67
2023/04/30 22:57:50;;;;;;;;;;;;;;;10.82;90.92;101767.97;10375219;28;19929;-67
2023/04/30 23:02:53;;;;;;;;;;;;;;;10.64;93.49;101772.25;10374718;28;19925;-67
2023/04/30 23:07:55;;;;;;;;;;;;;;;10.56;93.30;101767.31;10373933;28;20273;-67
2023/04/30 23:12:57;;;;;;;;;;;;;;;10.51;93.45;101765.81;10373904;28;19930;-67
2023/04/30 23:17:59;;;;;;;;;;;;;;;10.57;94.02;101757.69;10375316;28;19926;-66
2023/04/30 23:23:02;;;;;;;;;;;;;;;10.67;94.09;101760.78;10373707;28;19929;-66
2023/04/30 23:28:04;;;;;;;;;;;;;;;10.54;95.61;101766.53;10374502;28;20384;-66
2023/04/30 23:33:07;;;;;;;;;;;;;;;10.64;93.83;101747.81;10374186;28;19929;-66
2023/04/30 23:38:09;;;;;;;;;;;;;;;10.59;94.48;101750.59;10374334;28;20016;-67
2023/04/30 23:43:11;;;;;;;;;;;;;;;10.64;95.07;101748.66;10374709;28;19926;-67
2023/04/30 23:48:14;;;;;;;;;;;;;;;10.59;94.21;101730.53;10373458;28;19929;-67
2023/04/30 23:53:16;;;;;;;;;;;;;;;10.53;95.17;101728.16;10373759;28;19925;-67
2023/04/30 23:58:18;;;;;;;;;;;;;;;10.53;93.82;101722.94;10374648;28;19977;-67
